createdAt,value
2023-06-17T00:00:42.919Z,3.17
2023-06-17T00:03:10.204Z,3.40
2023-06-17T00:05:37.523Z,2.78
2023-06-17T00:08:04.292Z,2.97
2023-06-17T00:10:31.296Z,2.90
2023-06-17T00:12:59.761Z,3.40
2023-06-17T00:15:26.616Z,3.35
2023-06-17T00:17:53.453Z,3.55
2023-06-17T00:20:21.597Z,3.05
2023-06-17T00:22:48.682Z,3.10
2023-06-17T00:25:15.659Z,3.33
2023-06-17T00:27:42.400Z,3.35
2023-06-17T00:30:09.649Z,3.75
2023-06-17T00:32:37.287Z,3.05
2023-06-17T00:35:07.182Z,3.50
2023-06-17T00:37:34.020Z,3.38
2023-06-17T00:40:00.890Z,3.00
2023-06-17T00:42:27.726Z,3.40
2023-06-17T00:44:54.575Z,3.50
2023-06-17T00:47:21.345Z,3.10
2023-06-17T00:49:48.597Z,2.90
2023-06-17T00:52:31.635Z,3.92
2023-06-17T00:55:02.645Z,3.00
2023-06-17T00:57:30.526Z,3.08
2023-06-17T00:59:57.290Z,3.35
2023-06-17T01:02:27.168Z,2.88
2023-06-17T01:04:55.368Z,3.25
2023-06-17T01:07:59.790Z,3.47
2023-06-17T01:10:38.677Z,3.42
2023-06-17T01:13:06.478Z,3.20
2023-06-17T01:15:36.928Z,3.22
2023-06-17T01:18:06.397Z,3.23
2023-06-17T01:20:37.488Z,3.28
2023-06-17T01:23:06.644Z,3.67
2023-06-17T01:25:34.464Z,3.08
2023-06-17T01:28:17.267Z,3.05
2023-06-17T01:30:49.191Z,3.08
2023-06-17T01:33:16.551Z,3.15
2023-06-17T01:35:51.746Z,3.80
2023-06-17T01:38:28.988Z,3.47
2023-06-17T01:41:08.344Z,3.47
2023-06-17T01:43:35.868Z,2.72
2023-06-17T01:46:03.385Z,3.60
2023-06-17T01:48:30.079Z,3.40
2023-06-17T01:50:56.760Z,3.15
2023-06-17T01:53:26.046Z,2.85
2023-06-17T01:55:53.484Z,2.80
2023-06-17T01:58:20.251Z,3.33
2023-06-17T02:00:46.962Z,3.17
2023-06-17T02:03:13.916Z,3.47
2023-06-17T02:05:40.751Z,2.92
2023-06-17T02:08:07.387Z,3.22
2023-06-17T02:10:34.238Z,3.90
2023-06-17T02:13:02.762Z,3.53
2023-06-17T02:15:29.453Z,2.83
2023-06-17T02:17:56.630Z,3.08
2023-06-17T02:20:23.929Z,3.25
2023-06-17T02:22:50.943Z,3.30
2023-06-17T02:25:18.203Z,3.25
2023-06-17T02:27:44.948Z,3.60
2023-06-17T02:30:12.309Z,3.10
2023-06-17T02:32:38.991Z,3.05
2023-06-17T02:35:06.319Z,2.90
2023-06-17T02:37:32.952Z,2.53
2023-06-17T02:39:59.622Z,3.35
2023-06-17T02:42:26.407Z,2.75
2023-06-17T02:44:53.096Z,3.00
2023-06-17T02:47:19.833Z,2.85
2023-06-17T02:49:46.590Z,2.97
2023-06-17T02:52:13.357Z,3.08
2023-06-17T02:54:40.095Z,3.40
2023-06-17T02:57:06.847Z,3.00
2023-06-17T02:59:34.855Z,2.90
2023-06-17T03:02:01.721Z,3.38
2023-06-17T03:04:36.047Z,3.15
2023-06-17T03:07:06.532Z,3.58
2023-06-17T03:09:33.864Z,3.72
2023-06-17T03:12:00.907Z,2.85
2023-06-17T03:14:28.606Z,3.60
2023-06-17T03:16:55.453Z,3.80
2023-06-17T03:19:23.720Z,3.13
2023-06-17T03:21:51.410Z,3.17
2023-06-17T03:24:18.240Z,3.20
2023-06-17T03:26:46.297Z,3.63
2023-06-17T03:29:13.257Z,3.03
2023-06-17T03:31:40.276Z,3.40
2023-06-17T03:34:07.234Z,2.92
2023-06-17T03:36:35.100Z,2.88
2023-06-17T03:39:02.049Z,3.15
2023-06-17T03:41:28.829Z,3.10
2023-06-17T03:43:55.618Z,3.13
2023-06-17T03:46:22.632Z,3.63
2023-06-17T03:48:49.612Z,2.72
2023-06-17T03:51:18.223Z,2.95
2023-06-17T03:53:47.399Z,3.53
2023-06-17T03:56:15.169Z,3.25
2023-06-17T03:58:42.239Z,3.72
2023-06-17T04:01:13.555Z,3.55
2023-06-17T04:06:11.316Z,3.92
2023-06-17T04:08:38.727Z,3.05
2023-06-17T04:11:06.526Z,3.85
2023-06-17T04:13:33.569Z,3.28
2023-06-17T04:16:01.688Z,3.47
2023-06-17T04:18:29.630Z,3.80
2023-06-17T04:20:58.019Z,3.38
2023-06-17T04:23:25.736Z,3.65
2023-06-17T04:25:53.077Z,3.92
2023-06-17T04:28:20.956Z,4.07
2023-06-17T04:30:49.364Z,3.38
2023-06-17T04:33:16.285Z,3.65
2023-06-17T04:35:43.814Z,4.07
2023-06-17T04:38:11.856Z,3.83
2023-06-17T04:40:39.159Z,3.63
2023-06-17T04:43:07.291Z,3.83
2023-06-17T04:45:36.551Z,3.33
2023-06-17T04:48:07.675Z,3.67
2023-06-17T04:50:35.030Z,3.15
2023-06-17T04:53:05.385Z,2.95
2023-06-17T04:55:37.038Z,3.17
2023-06-17T04:58:05.273Z,3.15
2023-06-17T05:00:32.349Z,3.67
2023-06-17T05:02:59.522Z,3.25
2023-06-17T05:05:26.541Z,3.30
2023-06-17T05:07:53.476Z,3.28
2023-06-17T05:10:20.588Z,3.47
2023-06-17T05:12:47.827Z,3.28
2023-06-17T05:15:14.649Z,3.03
2023-06-17T05:17:44.791Z,3.10
2023-06-17T05:20:12.336Z,3.00
2023-06-17T05:22:40.734Z,3.08
2023-06-17T05:25:11.172Z,2.88
2023-06-17T05:27:39.908Z,3.20
2023-06-17T05:30:07.722Z,3.00
2023-06-17T05:32:36.930Z,2.55
2023-06-17T05:35:09.105Z,3.05
2023-06-17T05:37:36.466Z,3.05
2023-06-17T05:40:03.507Z,3.05
2023-06-17T05:42:33.472Z,3.40
2023-06-17T05:45:10.304Z,3.38
2023-06-17T05:47:37.800Z,2.88
2023-06-17T05:50:05.926Z,3.78
2023-06-17T05:52:33.023Z,3.00
2023-06-17T05:55:00.238Z,3.58
2023-06-17T05:57:27.457Z,2.85
2023-06-17T05:59:54.904Z,3.30
2023-06-17T06:02:22.033Z,3.30
2023-06-17T06:04:48.741Z,3.28
2023-06-17T06:07:15.599Z,3.25
2023-06-17T06:09:42.401Z,2.85
2023-06-17T06:12:09.459Z,2.83
2023-06-17T06:14:36.397Z,2.78
2023-06-17T06:17:04.729Z,3.30
2023-06-17T06:19:50.183Z,3.50
2023-06-17T06:22:18.378Z,3.47
2023-06-17T06:24:47.249Z,3.53
2023-06-17T06:27:14.568Z,3.70
2023-06-17T06:29:42.295Z,3.10
2023-06-17T06:32:14.561Z,3.53
2023-06-17T06:34:50.986Z,2.95
2023-06-17T06:37:20.471Z,3.15
2023-06-17T06:39:48.815Z,3.08
2023-06-17T06:42:18.347Z,3.17
2023-06-17T06:44:45.884Z,3.25
2023-06-17T06:47:15.086Z,2.92
2023-06-17T06:49:42.037Z,3.20
2023-06-17T06:52:09.007Z,3.15
2023-06-17T06:54:35.958Z,2.33
2023-06-17T06:57:02.894Z,1.65
2023-06-17T06:59:30.033Z,2.22
2023-06-17T07:01:57.818Z,1.95
2023-06-17T07:04:24.930Z,2.00
2023-06-17T07:06:53.192Z,1.63
2023-06-17T07:09:20.264Z,1.42
2023-06-17T07:11:46.981Z,1.92
2023-06-17T07:14:13.686Z,2.00
2023-06-17T07:16:40.363Z,2.10
2023-06-17T07:19:07.018Z,2.10
2023-06-17T07:21:33.615Z,2.10
2023-06-17T07:24:00.229Z,2.10
2023-06-17T07:26:26.848Z,2.17
2023-06-17T07:28:53.532Z,2.20
2023-06-17T07:31:20.154Z,2.15
2023-06-17T07:33:46.864Z,2.20
2023-06-17T07:36:13.474Z,1.95
2023-06-17T07:38:40.115Z,2.00
2023-06-17T07:41:06.702Z,2.47
2023-06-17T07:43:35.823Z,2.40
2023-06-17T07:49:45.988Z,2.33
2023-06-17T07:56:04.976Z,2.05
2023-06-17T07:58:31.629Z,2.67
2023-06-17T08:00:58.251Z,2.72
2023-06-17T08:03:30.489Z,2.58
2023-06-17T08:05:58.303Z,2.75
2023-06-17T08:08:24.932Z,2.90
2023-06-17T08:10:51.665Z,2.67
2023-06-17T08:13:18.247Z,2.67
2023-06-17T08:15:44.926Z,2.97
2023-06-17T08:18:11.647Z,3.25
2023-06-17T08:20:38.325Z,3.03
2023-06-17T08:23:05.019Z,3.33
2023-06-17T08:25:33.217Z,3.10
2023-06-17T08:31:49.877Z,2.80
2023-06-17T08:38:23.898Z,2.88
2023-06-17T08:40:50.647Z,2.80
2023-06-17T08:43:20.591Z,2.80
2023-06-17T08:45:49.880Z,2.78
2023-06-17T08:48:17.109Z,2.70
2023-06-17T08:50:46.124Z,3.53
2023-06-17T08:53:14.418Z,3.72
2023-06-17T08:55:41.233Z,3.42
2023-06-17T08:58:08.690Z,3.25
2023-06-17T09:00:36.594Z,3.08
2023-06-17T09:03:07.705Z,3.55
2023-06-17T09:05:34.411Z,3.75
2023-06-17T09:08:01.387Z,3.60
2023-06-17T09:10:28.012Z,3.53
2023-06-17T09:12:58.983Z,2.83
2023-06-17T09:17:54.710Z,3.40
2023-06-17T09:20:21.855Z,2.70
2023-06-17T09:22:49.407Z,3.45
2023-06-17T09:25:17.219Z,2.60
2023-06-17T09:30:45.342Z,2.25
2023-06-17T09:33:20.128Z,2.80
2023-06-17T09:35:48.270Z,2.67
2023-06-17T09:38:21.330Z,3.13
2023-06-17T09:40:49.412Z,2.80
2023-06-17T09:43:26.031Z,2.83
2023-06-17T09:46:02.941Z,3.20
2023-06-17T09:48:38.688Z,2.70
2023-06-17T09:51:06.721Z,2.88
2023-06-17T09:53:35.434Z,3.33
2023-06-17T09:56:03.770Z,3.10
2023-06-17T09:58:31.991Z,2.42
2023-06-17T10:01:01.773Z,2.72
2023-06-17T10:03:28.896Z,2.80
2023-06-17T10:06:04.423Z,2.72
2023-06-17T10:08:31.951Z,2.85
2023-06-17T10:11:00.870Z,2.83
2023-06-17T10:13:29.961Z,2.63
2023-06-17T10:15:56.944Z,3.08
2023-06-17T10:18:24.565Z,2.88
2023-06-17T10:20:51.959Z,2.75
2023-06-17T10:23:23.301Z,3.22
2023-06-17T10:25:49.926Z,2.65
2023-06-17T10:28:16.966Z,3.28
2023-06-17T10:34:32.915Z,2.92
2023-06-17T10:37:43.365Z,2.63
2023-06-17T10:43:16.718Z,2.95
2023-06-17T10:45:56.990Z,2.97
2023-06-17T10:48:31.658Z,2.72
2023-06-17T10:51:03.140Z,2.67
2023-06-17T10:53:32.020Z,3.42
2023-06-17T10:56:00.709Z,3.00
2023-06-17T10:58:32.044Z,2.90
2023-06-17T11:01:06.712Z,2.60
2023-06-17T11:03:33.967Z,2.80
2023-06-17T11:06:02.390Z,2.92
2023-06-17T11:08:34.125Z,2.47
2023-06-17T11:11:17.844Z,2.55
2023-06-17T11:13:48.298Z,2.80
2023-06-17T11:16:14.969Z,2.67
2023-06-17T11:18:43.335Z,2.58
2023-06-17T11:21:10.765Z,2.75
2023-06-17T11:23:39.824Z,3.17
2023-06-17T11:26:08.305Z,2.65
2023-06-17T11:28:36.435Z,2.70
2023-06-17T11:31:03.984Z,2.50
2023-06-17T11:33:32.154Z,2.53
2023-06-17T11:35:58.828Z,2.47
2023-06-17T11:38:27.529Z,2.60
2023-06-17T11:40:58.931Z,3.10
2023-06-17T11:43:29.016Z,2.47
2023-06-17T11:45:57.697Z,2.30
2023-06-17T11:48:28.933Z,2.75
2023-06-17T11:51:01.068Z,2.83
2023-06-17T11:53:44.796Z,2.40
2023-06-17T11:56:11.462Z,2.90
2023-06-17T11:58:41.042Z,2.30
2023-06-17T12:01:08.665Z,2.70
2023-06-17T12:03:36.063Z,2.72
2023-06-17T12:06:03.219Z,2.60
2023-06-17T12:08:36.671Z,2.70
2023-06-17T12:11:10.759Z,3.17
2023-06-17T12:13:43.945Z,2.92
2023-06-17T12:16:28.980Z,2.90
2023-06-17T12:18:55.699Z,2.97
2023-06-17T12:21:23.206Z,3.10
2023-06-17T12:23:52.092Z,3.10
2023-06-17T12:26:19.354Z,2.83
2023-06-17T12:28:46.408Z,3.10
2023-06-17T12:31:13.829Z,3.10
2023-06-17T12:33:40.819Z,2.67
2023-06-17T12:36:08.298Z,2.92
2023-06-17T12:38:34.969Z,3.47
2023-06-17T12:41:02.124Z,2.80
2023-06-17T12:43:32.007Z,2.78
2023-06-17T12:46:02.496Z,2.67
2023-06-17T12:48:30.122Z,2.78
2023-06-17T12:50:57.166Z,2.45
2023-06-17T12:53:24.319Z,2.60
2023-06-17T12:55:51.988Z,2.90
2023-06-17T12:58:18.566Z,2.85
2023-06-17T13:00:45.992Z,2.80
2023-06-17T13:03:13.783Z,2.90
2023-06-17T13:05:41.314Z,2.70
2023-06-17T13:08:08.351Z,2.67
2023-06-17T13:10:35.035Z,3.00
2023-06-17T13:13:01.683Z,2.83
2023-06-17T13:15:30.716Z,2.97
2023-06-17T13:17:57.622Z,2.67
2023-06-17T13:20:24.727Z,3.22
2023-06-17T13:22:51.808Z,2.80
2023-06-17T13:25:18.491Z,2.90
2023-06-17T13:27:45.146Z,2.80
2023-06-17T13:30:13.410Z,2.53
2023-06-17T13:36:26.790Z,2.55
2023-06-17T13:38:53.614Z,2.90
2023-06-17T13:41:21.354Z,2.90
2023-06-17T13:43:48.095Z,3.22
2023-06-17T13:46:15.249Z,3.05
2023-06-17T13:48:43.316Z,3.25
2023-06-17T13:51:09.912Z,3.28
2023-06-17T13:53:36.717Z,2.55
2023-06-17T13:56:03.536Z,3.03
2023-06-17T13:58:30.163Z,3.00
2023-06-17T14:00:57.417Z,2.60
2023-06-17T14:03:24.283Z,3.20
2023-06-17T14:05:51.002Z,3.10
2023-06-17T14:08:17.741Z,2.72
2023-06-17T14:10:44.351Z,3.30
2023-06-17T14:13:11.035Z,2.80
2023-06-17T14:15:37.626Z,2.70
2023-06-17T14:18:04.393Z,3.05
2023-06-17T14:20:31.103Z,2.83
2023-06-17T14:22:58.862Z,2.95
2023-06-17T14:25:28.313Z,2.92
2023-06-17T14:27:54.923Z,2.90
2023-06-17T14:30:21.910Z,2.70
2023-06-17T14:32:49.814Z,2.95
2023-06-17T14:35:18.726Z,3.58
2023-06-17T14:37:47.148Z,2.88
2023-06-17T14:40:14.425Z,2.60
2023-06-17T14:42:41.737Z,3.20
2023-06-17T14:45:13.033Z,3.47
2023-06-17T14:47:40.578Z,3.58
2023-06-17T14:50:09.038Z,2.33
2023-06-17T14:52:36.139Z,2.58
2023-06-17T14:55:02.806Z,2.47
2023-06-17T14:57:31.502Z,2.70
2023-06-17T15:00:00.047Z,2.60
2023-06-17T15:02:49.024Z,3.13
2023-06-17T15:05:17.538Z,3.08
2023-06-17T15:07:44.227Z,2.90
2023-06-17T15:10:11.150Z,3.00
2023-06-17T15:12:39.892Z,2.75
2023-06-17T15:15:07.033Z,2.95
2023-06-17T15:17:33.657Z,2.95
2023-06-17T15:20:00.275Z,2.83
2023-06-17T15:22:27.822Z,2.78
2023-06-17T15:24:54.491Z,3.08
2023-06-17T15:27:21.043Z,2.97
2023-06-17T15:29:47.655Z,2.72
2023-06-17T15:32:14.297Z,2.75
2023-06-17T15:34:40.932Z,2.65
2023-06-17T15:37:08.183Z,2.90
2023-06-17T15:39:36.071Z,2.95
2023-06-17T15:42:03.084Z,2.63
2023-06-17T15:44:29.649Z,3.00
2023-06-17T15:46:56.490Z,2.92
2023-06-17T15:49:23.140Z,3.28
2023-06-17T15:51:49.713Z,3.20
2023-06-17T15:54:16.569Z,2.80
2023-06-17T15:56:47.030Z,2.88
2023-06-17T16:01:40.317Z,2.70
2023-06-17T16:04:16.899Z,2.65
2023-06-17T16:06:43.651Z,3.10
2023-06-17T16:09:10.245Z,3.10
2023-06-17T16:11:36.851Z,3.80
2023-06-17T16:14:03.570Z,2.72
2023-06-17T16:16:30.816Z,2.65
2023-06-17T16:18:57.422Z,2.63
2023-06-17T16:25:14.059Z,3.17
2023-06-17T16:27:41.778Z,2.70
2023-06-17T16:30:09.376Z,2.95
2023-06-17T16:32:35.964Z,3.13
2023-06-17T16:35:02.699Z,2.75
2023-06-17T16:37:29.324Z,2.88
2023-06-17T16:39:56.078Z,3.17
2023-06-17T16:42:22.687Z,2.58
2023-06-17T16:44:49.293Z,2.95
2023-06-17T16:47:16.345Z,3.15
2023-06-17T16:49:43.066Z,2.78
2023-06-17T16:52:09.715Z,2.83
2023-06-17T16:54:36.333Z,3.10
2023-06-17T16:57:03.358Z,2.83
2023-06-17T16:59:30.034Z,3.15
2023-06-17T17:01:56.686Z,3.35
2023-06-17T17:04:23.345Z,2.85
2023-06-17T17:06:49.912Z,2.97
2023-06-17T17:09:16.571Z,3.55
2023-06-17T17:11:43.356Z,3.50
2023-06-17T17:14:10.003Z,3.20
2023-06-17T17:16:36.747Z,3.35
2023-06-17T17:19:03.428Z,3.78
2023-06-17T17:21:30.556Z,3.63
2023-06-17T17:23:57.432Z,3.60
2023-06-17T17:26:24.097Z,3.15
2023-06-17T17:28:51.008Z,3.30
2023-06-17T17:31:17.695Z,3.28
2023-06-17T17:33:45.169Z,3.40
2023-06-17T17:36:13.164Z,3.50
2023-06-17T17:38:40.904Z,2.92
2023-06-17T17:41:07.471Z,3.35
2023-06-17T17:43:34.174Z,4.43
2023-06-17T17:46:02.693Z,3.50
2023-06-17T17:48:29.386Z,2.97
2023-06-17T17:50:56.128Z,3.45
2023-06-17T17:53:22.906Z,3.50
2023-06-17T17:55:49.576Z,3.38
2023-06-17T17:58:17.358Z,4.00
2023-06-17T18:00:43.976Z,2.88
2023-06-17T18:03:10.783Z,3.05
2023-06-17T18:05:37.554Z,3.50
2023-06-17T18:08:04.344Z,3.10
2023-06-17T18:10:30.989Z,3.38
2023-06-17T18:12:57.572Z,3.63
2023-06-17T18:15:24.241Z,3.33
2023-06-17T18:17:51.025Z,3.80
2023-06-17T18:20:17.667Z,3.63
2023-06-17T18:22:44.281Z,3.28
2023-06-17T18:25:11.215Z,3.60
2023-06-17T18:27:39.101Z,3.05
2023-06-17T18:30:06.412Z,3.30
2023-06-17T18:32:33.120Z,3.75
2023-06-17T18:34:59.815Z,3.70
2023-06-17T18:37:27.194Z,3.85
2023-06-17T18:39:53.815Z,3.75
2023-06-17T18:42:20.408Z,4.20
2023-06-17T18:44:47.026Z,3.90
2023-06-17T18:47:13.827Z,3.33
2023-06-17T18:49:41.740Z,3.15
2023-06-17T18:52:08.478Z,3.60
2023-06-17T18:54:35.117Z,3.55
2023-06-17T18:57:01.939Z,3.50
2023-06-17T18:59:28.549Z,3.13
2023-06-17T19:01:55.314Z,3.22
2023-06-17T19:04:22.000Z,3.63
2023-06-17T19:06:50.435Z,3.97
2023-06-17T19:09:17.142Z,3.60
2023-06-17T19:11:43.820Z,3.30
2023-06-17T19:14:11.828Z,3.92
2023-06-17T19:16:38.687Z,3.78
2023-06-17T19:19:05.565Z,3.53
2023-06-17T19:21:32.364Z,3.42
2023-06-17T19:23:59.062Z,3.95
2023-06-17T19:26:25.847Z,3.97
2023-06-17T19:28:52.710Z,3.60
2023-06-17T19:31:26.026Z,3.58
2023-06-17T19:33:53.676Z,3.80
2023-06-17T19:36:20.413Z,4.03
2023-06-17T19:38:47.054Z,3.65
2023-06-17T19:41:13.712Z,4.35
2023-06-17T19:43:40.439Z,3.63
2023-06-17T19:46:09.179Z,4.20
2023-06-17T19:48:36.143Z,3.65
2023-06-17T19:51:02.797Z,3.90
2023-06-17T19:53:29.407Z,3.72
2023-06-17T19:55:56.245Z,3.65
2023-06-17T19:58:22.913Z,4.05
2023-06-17T20:00:49.582Z,3.80
2023-06-17T20:03:16.718Z,4.03
2023-06-17T20:05:45.926Z,3.85
2023-06-17T20:08:13.143Z,4.30
2023-06-17T20:10:40.297Z,4.05
2023-06-17T20:13:06.939Z,4.53
2023-06-17T20:15:33.899Z,4.47
2023-06-17T20:18:00.702Z,3.92
2023-06-17T20:20:28.684Z,4.35
2023-06-17T20:22:55.397Z,3.92
2023-06-17T20:25:22.425Z,4.65
2023-06-17T20:27:49.177Z,4.35
2023-06-17T20:30:16.047Z,4.10
2023-06-17T20:32:42.740Z,4.50
2023-06-17T20:35:09.793Z,3.72
2023-06-17T20:37:37.160Z,3.90
2023-06-17T20:40:04.869Z,4.68
2023-06-17T20:42:31.518Z,4.55
2023-06-17T20:44:58.116Z,3.47
2023-06-17T20:47:24.826Z,4.38
2023-06-17T20:49:51.462Z,3.85
2023-06-17T20:52:18.398Z,3.97
2023-06-17T20:54:44.954Z,3.90
2023-06-17T20:57:12.147Z,4.72
2023-06-17T20:59:38.756Z,4.28
2023-06-17T21:02:05.633Z,4.60
2023-06-17T21:04:32.231Z,4.38
2023-06-17T21:06:58.921Z,3.80
2023-06-17T21:09:26.067Z,4.53
2023-06-17T21:11:53.051Z,4.07
2023-06-17T21:14:19.776Z,4.45
2023-06-17T21:16:46.420Z,4.30
2023-06-17T21:19:13.125Z,3.90
2023-06-17T21:21:39.870Z,4.05
2023-06-17T21:24:06.568Z,4.18
2023-06-17T21:26:33.252Z,4.15
2023-06-17T21:28:59.853Z,4.15
2023-06-17T21:31:26.485Z,4.50
2023-06-17T21:33:54.373Z,3.85
2023-06-17T21:36:21.582Z,4.55
2023-06-17T21:38:48.189Z,3.85
2023-06-17T21:41:14.805Z,4.00
2023-06-17T21:43:41.457Z,3.72
2023-06-17T21:46:08.161Z,3.72
2023-06-17T21:48:34.805Z,4.22
2023-06-17T21:51:01.408Z,4.07
2023-06-17T21:53:28.048Z,3.75
2023-06-17T21:55:54.732Z,4.05
2023-06-17T21:58:21.414Z,3.20
2023-06-17T22:00:50.325Z,4.10
2023-06-17T22:03:17.371Z,4.30
2023-06-17T22:05:43.977Z,3.85
2023-06-17T22:08:10.594Z,3.78
2023-06-17T22:10:37.214Z,4.38
2023-06-17T22:13:03.900Z,3.80
2023-06-17T22:15:30.552Z,4.57
2023-06-17T22:17:57.298Z,3.83
2023-06-17T22:20:24.403Z,5.07
2023-06-17T22:22:51.237Z,3.65
2023-06-17T22:25:17.850Z,3.90
2023-06-17T22:27:44.580Z,4.15
2023-06-17T22:30:11.443Z,3.80
2023-06-17T22:32:38.461Z,3.50
2023-06-17T22:35:05.917Z,3.90
2023-06-17T22:37:32.663Z,4.25
2023-06-17T22:39:59.307Z,4.18
2023-06-17T22:42:25.952Z,4.35
2023-06-17T22:44:52.698Z,3.85
2023-06-17T22:47:19.450Z,3.90
2023-06-17T22:49:46.509Z,3.65
2023-06-17T22:52:13.270Z,4.03
2023-06-17T22:54:39.889Z,4.65
2023-06-17T22:57:07.126Z,3.50
2023-06-17T22:59:33.779Z,4.15
2023-06-17T23:02:02.269Z,4.10
2023-06-17T23:04:29.244Z,4.60
2023-06-17T23:06:55.926Z,4.22
2023-06-17T23:09:22.511Z,4.88
2023-06-17T23:11:49.165Z,4.13
2023-06-17T23:14:15.810Z,3.97
2023-06-17T23:16:42.408Z,4.07
2023-06-17T23:19:09.256Z,4.25
2023-06-17T23:21:37.934Z,3.70
2023-06-17T23:24:04.973Z,3.20
2023-06-17T23:26:33.669Z,4.30
2023-06-17T23:29:00.436Z,3.83
2023-06-17T23:31:27.528Z,3.85
2023-06-17T23:33:54.798Z,3.15
2023-06-17T23:36:22.458Z,3.70
2023-06-17T23:38:49.597Z,3.60
2023-06-17T23:41:16.549Z,3.50
2023-06-17T23:43:43.182Z,3.80
2023-06-17T23:46:11.883Z,4.22
2023-06-17T23:48:38.641Z,3.85
2023-06-17T23:51:05.382Z,3.80
2023-06-17T23:53:31.968Z,3.58
2023-06-17T23:55:58.593Z,4.22
2023-06-17T23:58:26.297Z,3.35
